sensor_id;sensor_type;location;lat;lon;timestamp;temperature;humidity
33095;DHT22;19459;53.044;8.910;2024-01-06T00:02:24;2.80;99.90
33095;DHT22;19459;53.044;8.910;2024-01-06T00:04:50;2.80;99.90
33095;DHT22;19459;53.044;8.910;2024-01-06T00:07:15;2.80;99.90
33095;DHT22;19459;53.044;8.910;2024-01-06T00:09:41;2.80;99.90
33095;DHT22;19459;53.044;8.910;2024-01-06T00:12:07;2.80;99.90
33095;DHT22;19459;53.044;8.910;2024-01-06T00:14:33;2.80;99.90
33095;DHT22;19459;53.044;8.910;2024-01-06T00:16:59;2.80;99.90
33095;DHT22;19459;53.044;8.910;2024-01-06T00:19:25;2.80;99.90
33095;DHT22;19459;53.044;8.910;2024-01-06T00:21:50;2.80;99.90
33095;DHT22;19459;53.044;8.910;2024-01-06T00:24:16;2.80;99.90
33095;DHT22;19459;53.044;8.910;2024-01-06T00:26:42;2.80;99.90
33095;DHT22;19459;53.044;8.910;2024-01-06T00:29:08;2.80;99.90
33095;DHT22;19459;53.044;8.910;2024-01-06T00:31:34;2.70;99.90
33095;DHT22;19459;53.044;8.910;2024-01-06T00:34:00;2.70;99.90
33095;DHT22;19459;53.044;8.910;2024-01-06T00:36:26;2.70;99.90
33095;DHT22;19459;53.044;8.910;2024-01-06T00:38:52;2.70;99.90
33095;DHT22;19459;53.044;8.910;2024-01-06T00:41:18;2.70;99.90
33095;DHT22;19459;53.044;8.910;2024-01-06T00:43:44;2.80;99.90
33095;DHT22;19459;53.044;8.910;2024-01-06T00:46:10;2.70;99.90
33095;DHT22;19459;53.044;8.910;2024-01-06T00:48:36;2.70;99.90
33095;DHT22;19459;53.044;8.910;2024-01-06T00:51:02;2.70;99.90
33095;DHT22;19459;53.044;8.910;2024-01-06T00:53:28;2.60;99.90
33095;DHT22;19459;53.044;8.910;2024-01-06T00:55:54;2.70;99.90
33095;DHT22;19459;53.044;8.910;2024-01-06T00:58:19;2.70;99.90
33095;DHT22;19459;53.044;8.910;2024-01-06T01:00:45;2.70;99.90
33095;DHT22;19459;53.044;8.910;2024-01-06T01:03:11;2.70;99.90
33095;DHT22;19459;53.044;8.910;2024-01-06T01:05:36;2.70;99.90
33095;DHT22;19459;53.044;8.910;2024-01-06T01:08:02;2.70;99.90
33095;DHT22;19459;53.044;8.910;2024-01-06T01:10:28;2.60;99.90
33095;DHT22;19459;53.044;8.910;2024-01-06T01:12:54;2.60;99.90
33095;DHT22;19459;53.044;8.910;2024-01-06T01:15:20;2.70;99.90
33095;DHT22;19459;53.044;8.910;2024-01-06T01:17:45;2.70;99.90
33095;DHT22;19459;53.044;8.910;2024-01-06T01:20:11;2.70;99.90
33095;DHT22;19459;53.044;8.910;2024-01-06T01:22:37;2.70;99.90
33095;DHT22;19459;53.044;8.910;2024-01-06T01:25:03;2.70;99.90
33095;DHT22;19459;53.044;8.910;2024-01-06T01:27:33;2.70;99.90
33095;DHT22;19459;53.044;8.910;2024-01-06T01:29:59;2.60;99.90
33095;DHT22;19459;53.044;8.910;2024-01-06T01:32:25;2.60;99.90
33095;DHT22;19459;53.044;8.910;2024-01-06T01:34:51;2.60;99.90
33095;DHT22;19459;53.044;8.910;2024-01-06T01:37:16;2.60;99.90
33095;DHT22;19459;53.044;8.910;2024-01-06T01:39:42;2.60;99.90
33095;DHT22;19459;53.044;8.910;2024-01-06T01:42:08;2.60;99.90
33095;DHT22;19459;53.044;8.910;2024-01-06T01:44:34;2.60;99.90
33095;DHT22;19459;53.044;8.910;2024-01-06T01:47:00;2.60;99.90
33095;DHT22;19459;53.044;8.910;2024-01-06T01:49:26;2.60;99.90
33095;DHT22;19459;53.044;8.910;2024-01-06T01:51:52;2.60;99.90
33095;DHT22;19459;53.044;8.910;2024-01-06T01:54:18;2.60;99.90
33095;DHT22;19459;53.044;8.910;2024-01-06T01:56:44;2.60;99.90
33095;DHT22;19459;53.044;8.910;2024-01-06T01:59:14;2.60;99.90
33095;DHT22;19459;53.044;8.910;2024-01-06T02:01:43;2.70;99.90
33095;DHT22;19459;53.044;8.910;2024-01-06T02:04:09;2.60;99.90
33095;DHT22;19459;53.044;8.910;2024-01-06T02:06:35;2.60;99.90
33095;DHT22;19459;53.044;8.910;2024-01-06T02:09:01;2.60;99.90
33095;DHT22;19459;53.044;8.910;2024-01-06T02:11:27;2.70;99.90
33095;DHT22;19459;53.044;8.910;2024-01-06T02:13:53;2.70;99.90
33095;DHT22;19459;53.044;8.910;2024-01-06T02:16:19;2.60;99.90
33095;DHT22;19459;53.044;8.910;2024-01-06T02:18:44;2.60;99.90
33095;DHT22;19459;53.044;8.910;2024-01-06T02:21:10;2.60;99.90
33095;DHT22;19459;53.044;8.910;2024-01-06T02:23:36;2.60;99.90
33095;DHT22;19459;53.044;8.910;2024-01-06T02:26:03;2.60;99.90
33095;DHT22;19459;53.044;8.910;2024-01-06T02:28:28;2.60;99.90
33095;DHT22;19459;53.044;8.910;2024-01-06T02:30:54;2.60;99.90
33095;DHT22;19459;53.044;8.910;2024-01-06T02:33:20;2.60;99.90
33095;DHT22;19459;53.044;8.910;2024-01-06T02:35:46;2.60;99.90
33095;DHT22;19459;53.044;8.910;2024-01-06T02:38:12;2.60;99.90
33095;DHT22;19459;53.044;8.910;2024-01-06T02:40:38;2.50;99.90
33095;DHT22;19459;53.044;8.910;2024-01-06T02:43:04;2.50;99.90
33095;DHT22;19459;53.044;8.910;2024-01-06T02:45:30;2.50;99.90
33095;DHT22;19459;53.044;8.910;2024-01-06T02:47:55;2.50;99.90
33095;DHT22;19459;53.044;8.910;2024-01-06T02:50:21;2.50;99.90
33095;DHT22;19459;53.044;8.910;2024-01-06T02:52:47;2.40;99.90
33095;DHT22;19459;53.044;8.910;2024-01-06T02:55:13;2.50;99.90
33095;DHT22;19459;53.044;8.910;2024-01-06T02:57:39;2.40;99.90
33095;DHT22;19459;53.044;8.910;2024-01-06T03:00:07;2.40;99.90
33095;DHT22;19459;53.044;8.910;2024-01-06T03:02:33;2.40;99.90
33095;DHT22;19459;53.044;8.910;2024-01-06T03:05:01;2.40;99.90
33095;DHT22;19459;53.044;8.910;2024-01-06T03:07:27;2.40;99.90
33095;DHT22;19459;53.044;8.910;2024-01-06T03:09:53;2.40;99.90
33095;DHT22;19459;53.044;8.910;2024-01-06T03:12:19;2.30;99.90
33095;DHT22;19459;53.044;8.910;2024-01-06T03:14:44;2.30;99.90
33095;DHT22;19459;53.044;8.910;2024-01-06T03:17:10;2.30;99.90
33095;DHT22;19459;53.044;8.910;2024-01-06T03:19:36;2.30;99.90
33095;DHT22;19459;53.044;8.910;2024-01-06T03:22:02;2.30;99.90
33095;DHT22;19459;53.044;8.910;2024-01-06T03:24:28;2.30;99.90
33095;DHT22;19459;53.044;8.910;2024-01-06T03:26:54;2.30;99.90
33095;DHT22;19459;53.044;8.910;2024-01-06T03:29:20;2.30;99.90
33095;DHT22;19459;53.044;8.910;2024-01-06T03:31:46;2.30;99.90
33095;DHT22;19459;53.044;8.910;2024-01-06T03:34:12;2.30;99.90
33095;DHT22;19459;53.044;8.910;2024-01-06T03:36:38;2.30;99.90
33095;DHT22;19459;53.044;8.910;2024-01-06T03:39:05;2.30;99.90
33095;DHT22;19459;53.044;8.910;2024-01-06T03:41:31;2.30;99.90
33095;DHT22;19459;53.044;8.910;2024-01-06T03:43:57;2.30;99.90
33095;DHT22;19459;53.044;8.910;2024-01-06T03:46:23;2.30;99.90
33095;DHT22;19459;53.044;8.910;2024-01-06T03:48:49;2.30;99.90
33095;DHT22;19459;53.044;8.910;2024-01-06T03:51:15;2.30;99.90
33095;DHT22;19459;53.044;8.910;2024-01-06T03:53:41;2.30;99.90
33095;DHT22;19459;53.044;8.910;2024-01-06T03:56:07;2.30;99.90
33095;DHT22;19459;53.044;8.910;2024-01-06T03:58:33;2.20;99.90
33095;DHT22;19459;53.044;8.910;2024-01-06T04:00:59;2.20;99.90
33095;DHT22;19459;53.044;8.910;2024-01-06T04:03:25;2.20;99.90
33095;DHT22;19459;53.044;8.910;2024-01-06T04:05:50;2.20;99.90
33095;DHT22;19459;53.044;8.910;2024-01-06T04:08:17;2.20;99.90
33095;DHT22;19459;53.044;8.910;2024-01-06T04:10:43;2.20;99.90
33095;DHT22;19459;53.044;8.910;2024-01-06T04:13:11;2.20;99.90
33095;DHT22;19459;53.044;8.910;2024-01-06T04:15:37;2.20;99.90
33095;DHT22;19459;53.044;8.910;2024-01-06T04:18:03;2.20;99.90
33095;DHT22;19459;53.044;8.910;2024-01-06T04:20:30;2.10;99.90
33095;DHT22;19459;53.044;8.910;2024-01-06T04:22:57;2.20;99.90
33095;DHT22;19459;53.044;8.910;2024-01-06T04:25:22;2.20;99.90
33095;DHT22;19459;53.044;8.910;2024-01-06T04:27:48;2.10;99.90
33095;DHT22;19459;53.044;8.910;2024-01-06T04:30:15;2.10;99.90
33095;DHT22;19459;53.044;8.910;2024-01-06T04:32:42;2.10;99.90
33095;DHT22;19459;53.044;8.910;2024-01-06T04:35:08;2.10;99.90
33095;DHT22;19459;53.044;8.910;2024-01-06T04:37:35;2.10;99.90
33095;DHT22;19459;53.044;8.910;2024-01-06T04:40:01;2.10;99.90
33095;DHT22;19459;53.044;8.910;2024-01-06T04:42:27;2.00;99.90
33095;DHT22;19459;53.044;8.910;2024-01-06T04:44:54;2.00;99.90
33095;DHT22;19459;53.044;8.910;2024-01-06T04:47:19;2.00;99.90
33095;DHT22;19459;53.044;8.910;2024-01-06T04:49:45;2.00;99.90
33095;DHT22;19459;53.044;8.910;2024-01-06T04:52:11;2.00;99.90
33095;DHT22;19459;53.044;8.910;2024-01-06T04:54:37;2.00;99.90
33095;DHT22;19459;53.044;8.910;2024-01-06T04:57:03;2.00;99.90
33095;DHT22;19459;53.044;8.910;2024-01-06T04:59:30;2.00;99.90
33095;DHT22;19459;53.044;8.910;2024-01-06T05:01:57;2.00;99.90
33095;DHT22;19459;53.044;8.910;2024-01-06T05:04:23;2.00;99.90
33095;DHT22;19459;53.044;8.910;2024-01-06T05:06:53;2.00;99.90
33095;DHT22;19459;53.044;8.910;2024-01-06T05:09:18;2.00;99.90
33095;DHT22;19459;53.044;8.910;2024-01-06T05:11:44;2.10;99.90
33095;DHT22;19459;53.044;8.910;2024-01-06T05:14:10;2.00;99.90
33095;DHT22;19459;53.044;8.910;2024-01-06T05:16:36;2.10;99.90
33095;DHT22;19459;53.044;8.910;2024-01-06T05:19:02;2.10;99.90
33095;DHT22;19459;53.044;8.910;2024-01-06T05:21:29;2.10;99.90
33095;DHT22;19459;53.044;8.910;2024-01-06T05:23:55;2.10;99.90
33095;DHT22;19459;53.044;8.910;2024-01-06T05:26:21;2.10;99.90
33095;DHT22;19459;53.044;8.910;2024-01-06T05:28:46;2.10;99.90
33095;DHT22;19459;53.044;8.910;2024-01-06T05:31:12;2.10;99.90
33095;DHT22;19459;53.044;8.910;2024-01-06T05:33:38;2.00;99.90
33095;DHT22;19459;53.044;8.910;2024-01-06T05:36:04;2.00;99.90
33095;DHT22;19459;53.044;8.910;2024-01-06T05:38:30;2.10;99.90
33095;DHT22;19459;53.044;8.910;2024-01-06T05:40:56;2.00;99.90
33095;DHT22;19459;53.044;8.910;2024-01-06T05:43:21;2.00;99.90
33095;DHT22;19459;53.044;8.910;2024-01-06T05:45:47;2.00;99.90
33095;DHT22;19459;53.044;8.910;2024-01-06T05:48:13;2.00;99.90
33095;DHT22;19459;53.044;8.910;2024-01-06T05:50:39;2.00;99.90
33095;DHT22;19459;53.044;8.910;2024-01-06T05:53:05;2.00;99.90
33095;DHT22;19459;53.044;8.910;2024-01-06T05:55:31;2.00;99.90
33095;DHT22;19459;53.044;8.910;2024-01-06T05:57:56;2.00;99.90
33095;DHT22;19459;53.044;8.910;2024-01-06T06:00:22;1.90;99.90
33095;DHT22;19459;53.044;8.910;2024-01-06T06:02:48;1.90;99.90
33095;DHT22;19459;53.044;8.910;2024-01-06T06:05:14;1.90;99.90
33095;DHT22;19459;53.044;8.910;2024-01-06T06:07:40;1.90;99.90
33095;DHT22;19459;53.044;8.910;2024-01-06T06:10:07;1.90;99.90
33095;DHT22;19459;53.044;8.910;2024-01-06T06:12:34;1.90;99.90
33095;DHT22;19459;53.044;8.910;2024-01-06T06:15:00;1.90;99.90
33095;DHT22;19459;53.044;8.910;2024-01-06T06:17:26;1.90;99.90
33095;DHT22;19459;53.044;8.910;2024-01-06T06:19:52;1.90;99.90
33095;DHT22;19459;53.044;8.910;2024-01-06T06:22:18;1.90;99.90
33095;DHT22;19459;53.044;8.910;2024-01-06T06:24:44;1.90;99.90
33095;DHT22;19459;53.044;8.910;2024-01-06T06:27:10;1.90;99.90
33095;DHT22;19459;53.044;8.910;2024-01-06T06:29:36;1.90;99.90
33095;DHT22;19459;53.044;8.910;2024-01-06T06:32:01;1.90;99.90
33095;DHT22;19459;53.044;8.910;2024-01-06T06:34:27;1.90;99.90
33095;DHT22;19459;53.044;8.910;2024-01-06T06:36:53;1.90;99.90
33095;DHT22;19459;53.044;8.910;2024-01-06T06:39:19;1.90;99.90
33095;DHT22;19459;53.044;8.910;2024-01-06T06:41:44;1.90;99.90
33095;DHT22;19459;53.044;8.910;2024-01-06T06:44:10;1.90;99.90
33095;DHT22;19459;53.044;8.910;2024-01-06T06:46:36;1.90;99.90
33095;DHT22;19459;53.044;8.910;2024-01-06T06:49:02;1.80;99.90
33095;DHT22;19459;53.044;8.910;2024-01-06T06:51:29;1.80;99.90
33095;DHT22;19459;53.044;8.910;2024-01-06T06:53:55;1.80;99.90
33095;DHT22;19459;53.044;8.910;2024-01-06T06:56:22;1.70;99.90
33095;DHT22;19459;53.044;8.910;2024-01-06T06:58:48;1.70;99.90
33095;DHT22;19459;53.044;8.910;2024-01-06T07:01:15;1.70;99.90
33095;DHT22;19459;53.044;8.910;2024-01-06T07:03:41;1.70;99.90
33095;DHT22;19459;53.044;8.910;2024-01-06T07:06:07;1.70;99.90
33095;DHT22;19459;53.044;8.910;2024-01-06T07:08:33;1.70;99.90
33095;DHT22;19459;53.044;8.910;2024-01-06T07:10:58;1.70;99.90
33095;DHT22;19459;53.044;8.910;2024-01-06T07:13:25;1.70;99.90
33095;DHT22;19459;53.044;8.910;2024-01-06T07:15:53;1.70;99.90
33095;DHT22;19459;53.044;8.910;2024-01-06T07:18:19;1.60;99.90
33095;DHT22;19459;53.044;8.910;2024-01-06T07:20:48;1.70;99.90
33095;DHT22;19459;53.044;8.910;2024-01-06T07:23:14;1.60;99.90
33095;DHT22;19459;53.044;8.910;2024-01-06T07:25:40;1.70;99.90
33095;DHT22;19459;53.044;8.910;2024-01-06T07:28:06;1.60;99.90
33095;DHT22;19459;53.044;8.910;2024-01-06T07:30:33;1.60;99.90
33095;DHT22;19459;53.044;8.910;2024-01-06T07:32:59;1.60;99.90
33095;DHT22;19459;53.044;8.910;2024-01-06T07:35:25;1.60;99.90
33095;DHT22;19459;53.044;8.910;2024-01-06T07:37:51;1.60;99.90
33095;DHT22;19459;53.044;8.910;2024-01-06T07:40:18;1.60;99.90
33095;DHT22;19459;53.044;8.910;2024-01-06T07:42:44;1.60;99.90
33095;DHT22;19459;53.044;8.910;2024-01-06T07:45:10;1.60;99.90
33095;DHT22;19459;53.044;8.910;2024-01-06T07:47:36;1.60;99.90
33095;DHT22;19459;53.044;8.910;2024-01-06T07:50:02;1.60;99.90
33095;DHT22;19459;53.044;8.910;2024-01-06T07:52:30;1.60;99.90
33095;DHT22;19459;53.044;8.910;2024-01-06T07:54:56;1.60;99.90
33095;DHT22;19459;53.044;8.910;2024-01-06T07:57:22;1.60;99.90
33095;DHT22;19459;53.044;8.910;2024-01-06T07:59:47;1.60;99.90
33095;DHT22;19459;53.044;8.910;2024-01-06T08:02:13;1.60;99.90
33095;DHT22;19459;53.044;8.910;2024-01-06T08:04:39;1.50;99.90
33095;DHT22;19459;53.044;8.910;2024-01-06T08:07:04;1.60;99.90
33095;DHT22;19459;53.044;8.910;2024-01-06T08:11:26;1.50;99.90
33095;DHT22;19459;53.044;8.910;2024-01-06T08:13:52;1.60;99.90
33095;DHT22;19459;53.044;8.910;2024-01-06T08:16:18;1.60;99.90
33095;DHT22;19459;53.044;8.910;2024-01-06T08:18:44;1.60;99.90
33095;DHT22;19459;53.044;8.910;2024-01-06T08:21:11;1.60;99.90
33095;DHT22;19459;53.044;8.910;2024-01-06T08:23:37;1.60;99.90
33095;DHT22;19459;53.044;8.910;2024-01-06T08:26:03;1.60;99.90
33095;DHT22;19459;53.044;8.910;2024-01-06T08:28:29;1.50;99.90
33095;DHT22;19459;53.044;8.910;2024-01-06T08:30:55;1.60;99.90
33095;DHT22;19459;53.044;8.910;2024-01-06T08:33:21;1.60;99.90
33095;DHT22;19459;53.044;8.910;2024-01-06T08:35:47;1.50;99.90
33095;DHT22;19459;53.044;8.910;2024-01-06T08:38:13;1.50;99.90
33095;DHT22;19459;53.044;8.910;2024-01-06T08:40:39;1.50;99.90
33095;DHT22;19459;53.044;8.910;2024-01-06T08:43:05;1.50;99.90
33095;DHT22;19459;53.044;8.910;2024-01-06T08:45:31;1.50;99.90
33095;DHT22;19459;53.044;8.910;2024-01-06T08:47:57;1.60;99.90
33095;DHT22;19459;53.044;8.910;2024-01-06T08:50:23;1.50;99.90
33095;DHT22;19459;53.044;8.910;2024-01-06T08:52:48;1.50;99.90
33095;DHT22;19459;53.044;8.910;2024-01-06T08:55:14;1.50;99.90
33095;DHT22;19459;53.044;8.910;2024-01-06T08:57:42;1.50;99.90
33095;DHT22;19459;53.044;8.910;2024-01-06T09:00:08;1.50;99.90
33095;DHT22;19459;53.044;8.910;2024-01-06T09:02:35;1.50;99.90
33095;DHT22;19459;53.044;8.910;2024-01-06T09:05:01;1.50;99.90
33095;DHT22;19459;53.044;8.910;2024-01-06T09:07:27;1.60;99.90
33095;DHT22;19459;53.044;8.910;2024-01-06T09:09:52;1.50;99.90
33095;DHT22;19459;53.044;8.910;2024-01-06T09:12:18;1.50;99.90
33095;DHT22;19459;53.044;8.910;2024-01-06T09:14:44;1.50;99.90
33095;DHT22;19459;53.044;8.910;2024-01-06T09:17:10;1.50;99.90
33095;DHT22;19459;53.044;8.910;2024-01-06T09:19:35;1.50;99.90
33095;DHT22;19459;53.044;8.910;2024-01-06T09:22:01;1.50;99.90
33095;DHT22;19459;53.044;8.910;2024-01-06T09:24:27;1.50;99.90
33095;DHT22;19459;53.044;8.910;2024-01-06T09:26:53;1.50;99.90
33095;DHT22;19459;53.044;8.910;2024-01-06T09:29:19;1.50;99.90
33095;DHT22;19459;53.044;8.910;2024-01-06T09:31:44;1.50;99.90
33095;DHT22;19459;53.044;8.910;2024-01-06T09:34:10;1.50;99.90
33095;DHT22;19459;53.044;8.910;2024-01-06T09:36:37;1.50;99.90
33095;DHT22;19459;53.044;8.910;2024-01-06T09:39:03;1.50;99.90
33095;DHT22;19459;53.044;8.910;2024-01-06T09:41:30;1.50;99.90
33095;DHT22;19459;53.044;8.910;2024-01-06T09:43:56;1.50;99.90
33095;DHT22;19459;53.044;8.910;2024-01-06T09:46:29;1.50;99.90
33095;DHT22;19459;53.044;8.910;2024-01-06T09:48:56;1.50;99.90
33095;DHT22;19459;53.044;8.910;2024-01-06T09:51:23;1.50;99.90
33095;DHT22;19459;53.044;8.910;2024-01-06T09:53:49;1.50;99.90
33095;DHT22;19459;53.044;8.910;2024-01-06T09:56:21;1.50;99.90
33095;DHT22;19459;53.044;8.910;2024-01-06T09:58:50;1.50;99.90
33095;DHT22;19459;53.044;8.910;2024-01-06T10:01:17;1.40;99.90
33095;DHT22;19459;53.044;8.910;2024-01-06T10:03:44;1.50;99.90
33095;DHT22;19459;53.044;8.910;2024-01-06T10:06:17;1.50;99.90
33095;DHT22;19459;53.044;8.910;2024-01-06T10:08:49;1.50;99.90
33095;DHT22;19459;53.044;8.910;2024-01-06T10:11:16;1.50;99.90
33095;DHT22;19459;53.044;8.910;2024-01-06T10:13:43;1.50;99.90
33095;DHT22;19459;53.044;8.910;2024-01-06T10:16:09;1.50;99.90
33095;DHT22;19459;53.044;8.910;2024-01-06T10:18:35;1.50;99.90
33095;DHT22;19459;53.044;8.910;2024-01-06T10:21:04;1.50;99.90
33095;DHT22;19459;53.044;8.910;2024-01-06T10:23:32;1.60;99.90
33095;DHT22;19459;53.044;8.910;2024-01-06T10:25:58;1.50;99.90
33095;DHT22;19459;53.044;8.910;2024-01-06T10:28:24;1.60;99.90
33095;DHT22;19459;53.044;8.910;2024-01-06T10:30:54;1.60;99.90
33095;DHT22;19459;53.044;8.910;2024-01-06T10:33:25;1.60;99.90
33095;DHT22;19459;53.044;8.910;2024-01-06T10:35:52;1.60;99.90
33095;DHT22;19459;53.044;8.910;2024-01-06T10:38:20;1.60;99.90
33095;DHT22;19459;53.044;8.910;2024-01-06T10:41:00;1.60;99.90
33095;DHT22;19459;53.044;8.910;2024-01-06T10:43:35;1.50;99.90
33095;DHT22;19459;53.044;8.910;2024-01-06T10:46:07;1.60;99.90
33095;DHT22;19459;53.044;8.910;2024-01-06T10:48:36;1.60;99.90
33095;DHT22;19459;53.044;8.910;2024-01-06T10:51:10;1.60;99.90
33095;DHT22;19459;53.044;8.910;2024-01-06T10:53:37;1.50;99.90
33095;DHT22;19459;53.044;8.910;2024-01-06T10:56:05;1.60;99.90
33095;DHT22;19459;53.044;8.910;2024-01-06T10:58:34;1.60;99.90
33095;DHT22;19459;53.044;8.910;2024-01-06T11:01:03;1.50;99.90
33095;DHT22;19459;53.044;8.910;2024-01-06T11:03:29;1.60;99.90
33095;DHT22;19459;53.044;8.910;2024-01-06T11:05:57;1.50;99.90
33095;DHT22;19459;53.044;8.910;2024-01-06T11:08:24;1.50;99.90
33095;DHT22;19459;53.044;8.910;2024-01-06T11:10:54;1.50;99.90
33095;DHT22;19459;53.044;8.910;2024-01-06T11:13:23;1.50;99.90
33095;DHT22;19459;53.044;8.910;2024-01-06T11:15:53;1.50;99.90
33095;DHT22;19459;53.044;8.910;2024-01-06T11:18:38;1.50;99.90
33095;DHT22;19459;53.044;8.910;2024-01-06T11:21:14;1.40;99.90
33095;DHT22;19459;53.044;8.910;2024-01-06T11:24:19;1.50;99.90
33095;DHT22;19459;53.044;8.910;2024-01-06T11:26:52;1.50;99.90
33095;DHT22;19459;53.044;8.910;2024-01-06T11:29:22;1.50;99.90
33095;DHT22;19459;53.044;8.910;2024-01-06T11:34:55;1.50;99.90
33095;DHT22;19459;53.044;8.910;2024-01-06T11:37:28;1.50;99.90
33095;DHT22;19459;53.044;8.910;2024-01-06T11:40:07;1.50;99.90
33095;DHT22;19459;53.044;8.910;2024-01-06T11:42:34;1.50;99.90
33095;DHT22;19459;53.044;8.910;2024-01-06T11:45:07;1.50;99.90
33095;DHT22;19459;53.044;8.910;2024-01-06T11:47:34;1.50;99.90
33095;DHT22;19459;53.044;8.910;2024-01-06T11:50:02;1.50;99.90
33095;DHT22;19459;53.044;8.910;2024-01-06T11:52:32;1.40;99.90
33095;DHT22;19459;53.044;8.910;2024-01-06T11:54:59;1.40;99.90
33095;DHT22;19459;53.044;8.910;2024-01-06T11:57:29;1.40;99.90
33095;DHT22;19459;53.044;8.910;2024-01-06T11:59:55;1.40;99.90
33095;DHT22;19459;53.044;8.910;2024-01-06T12:02:21;1.40;99.90
33095;DHT22;19459;53.044;8.910;2024-01-06T12:04:56;1.40;99.90
33095;DHT22;19459;53.044;8.910;2024-01-06T12:07:23;1.40;99.90
33095;DHT22;19459;53.044;8.910;2024-01-06T12:10:01;1.40;99.90
33095;DHT22;19459;53.044;8.910;2024-01-06T12:12:27;1.40;99.90
33095;DHT22;19459;53.044;8.910;2024-01-06T12:14:53;1.40;99.90
33095;DHT22;19459;53.044;8.910;2024-01-06T12:17:21;1.40;99.90
33095;DHT22;19459;53.044;8.910;2024-01-06T12:19:47;1.40;99.90
33095;DHT22;19459;53.044;8.910;2024-01-06T12:22:14;1.40;99.90
33095;DHT22;19459;53.044;8.910;2024-01-06T12:24:41;1.40;99.90
33095;DHT22;19459;53.044;8.910;2024-01-06T12:27:11;1.50;99.90
33095;DHT22;19459;53.044;8.910;2024-01-06T12:29:41;1.50;99.90
33095;DHT22;19459;53.044;8.910;2024-01-06T12:32:08;1.50;99.90
33095;DHT22;19459;53.044;8.910;2024-01-06T12:34:35;1.50;99.90
33095;DHT22;19459;53.044;8.910;2024-01-06T12:37:01;1.50;99.90
33095;DHT22;19459;53.044;8.910;2024-01-06T12:39:29;1.50;99.90
33095;DHT22;19459;53.044;8.910;2024-01-06T12:41:56;1.50;99.90
33095;DHT22;19459;53.044;8.910;2024-01-06T12:44:25;1.40;99.90
33095;DHT22;19459;53.044;8.910;2024-01-06T12:46:51;1.40;99.90
33095;DHT22;19459;53.044;8.910;2024-01-06T12:49:19;1.40;99.90
33095;DHT22;19459;53.044;8.910;2024-01-06T12:51:45;1.40;99.90
33095;DHT22;19459;53.044;8.910;2024-01-06T12:54:11;1.40;99.90
33095;DHT22;19459;53.044;8.910;2024-01-06T12:56:37;1.30;99.90
33095;DHT22;19459;53.044;8.910;2024-01-06T12:59:02;1.40;99.90
33095;DHT22;19459;53.044;8.910;2024-01-06T13:01:29;1.40;99.90
33095;DHT22;19459;53.044;8.910;2024-01-06T13:03:55;1.40;99.90
33095;DHT22;19459;53.044;8.910;2024-01-06T13:06:21;1.40;99.90
33095;DHT22;19459;53.044;8.910;2024-01-06T13:08:47;1.30;99.90
33095;DHT22;19459;53.044;8.910;2024-01-06T13:11:13;1.40;99.90
33095;DHT22;19459;53.044;8.910;2024-01-06T13:13:38;1.30;99.90
33095;DHT22;19459;53.044;8.910;2024-01-06T13:16:04;1.40;99.90
33095;DHT22;19459;53.044;8.910;2024-01-06T13:18:31;1.30;99.90
33095;DHT22;19459;53.044;8.910;2024-01-06T13:20:57;1.30;99.90
33095;DHT22;19459;53.044;8.910;2024-01-06T13:23:23;1.20;99.90
33095;DHT22;19459;53.044;8.910;2024-01-06T13:25:49;1.30;99.90
33095;DHT22;19459;53.044;8.910;2024-01-06T13:28:15;1.30;99.90
33095;DHT22;19459;53.044;8.910;2024-01-06T13:30:40;1.20;99.90
33095;DHT22;19459;53.044;8.910;2024-01-06T13:33:10;1.20;99.90
33095;DHT22;19459;53.044;8.910;2024-01-06T13:35:36;1.20;99.90
33095;DHT22;19459;53.044;8.910;2024-01-06T13:38:03;1.20;99.90
33095;DHT22;19459;53.044;8.910;2024-01-06T13:40:32;1.30;99.90
33095;DHT22;19459;53.044;8.910;2024-01-06T13:42:58;1.30;99.90
33095;DHT22;19459;53.044;8.910;2024-01-06T13:45:24;1.30;99.90
33095;DHT22;19459;53.044;8.910;2024-01-06T13:47:50;1.30;99.90
33095;DHT22;19459;53.044;8.910;2024-01-06T13:50:17;1.30;99.90
33095;DHT22;19459;53.044;8.910;2024-01-06T13:52:43;1.30;99.90
33095;DHT22;19459;53.044;8.910;2024-01-06T13:55:11;1.30;99.90
33095;DHT22;19459;53.044;8.910;2024-01-06T13:57:37;1.30;99.90
33095;DHT22;19459;53.044;8.910;2024-01-06T14:00:10;1.20;99.90
33095;DHT22;19459;53.044;8.910;2024-01-06T14:02:40;1.20;99.90
33095;DHT22;19459;53.044;8.910;2024-01-06T14:05:06;1.20;99.90
33095;DHT22;19459;53.044;8.910;2024-01-06T14:07:34;1.20;99.90
33095;DHT22;19459;53.044;8.910;2024-01-06T14:10:05;1.20;99.90
33095;DHT22;19459;53.044;8.910;2024-01-06T14:12:31;1.20;99.90
33095;DHT22;19459;53.044;8.910;2024-01-06T14:14:57;1.20;99.90
33095;DHT22;19459;53.044;8.910;2024-01-06T14:17:24;1.20;99.90
33095;DHT22;19459;53.044;8.910;2024-01-06T14:19:50;1.20;99.90
33095;DHT22;19459;53.044;8.910;2024-01-06T14:22:16;1.10;99.90
33095;DHT22;19459;53.044;8.910;2024-01-06T14:24:42;1.10;99.90
33095;DHT22;19459;53.044;8.910;2024-01-06T14:27:08;1.20;99.90
33095;DHT22;19459;53.044;8.910;2024-01-06T14:29:34;1.30;99.90
33095;DHT22;19459;53.044;8.910;2024-01-06T14:32:00;1.20;99.90
33095;DHT22;19459;53.044;8.910;2024-01-06T14:34:26;1.20;99.90
33095;DHT22;19459;53.044;8.910;2024-01-06T14:36:52;1.20;99.90
33095;DHT22;19459;53.044;8.910;2024-01-06T14:39:17;1.10;99.90
33095;DHT22;19459;53.044;8.910;2024-01-06T14:41:48;1.20;99.90
33095;DHT22;19459;53.044;8.910;2024-01-06T14:44:14;1.20;99.90
33095;DHT22;19459;53.044;8.910;2024-01-06T14:46:41;1.10;99.90
33095;DHT22;19459;53.044;8.910;2024-01-06T14:49:07;1.00;99.90
33095;DHT22;19459;53.044;8.910;2024-01-06T14:51:34;1.00;99.90
33095;DHT22;19459;53.044;8.910;2024-01-06T14:54:00;1.10;99.90
33095;DHT22;19459;53.044;8.910;2024-01-06T14:56:26;1.10;99.90
33095;DHT22;19459;53.044;8.910;2024-01-06T14:58:52;1.10;99.90
33095;DHT22;19459;53.044;8.910;2024-01-06T15:01:20;1.10;99.90
33095;DHT22;19459;53.044;8.910;2024-01-06T15:03:46;1.10;99.90
33095;DHT22;19459;53.044;8.910;2024-01-06T15:06:12;1.20;99.90
33095;DHT22;19459;53.044;8.910;2024-01-06T15:08:38;1.20;99.90
33095;DHT22;19459;53.044;8.910;2024-01-06T15:11:03;1.20;99.90
33095;DHT22;19459;53.044;8.910;2024-01-06T15:13:29;1.10;99.90
33095;DHT22;19459;53.044;8.910;2024-01-06T15:15:56;1.10;99.90
33095;DHT22;19459;53.044;8.910;2024-01-06T15:18:22;1.10;99.90
33095;DHT22;19459;53.044;8.910;2024-01-06T15:20:49;1.10;99.90
33095;DHT22;19459;53.044;8.910;2024-01-06T15:23:15;1.10;99.90
33095;DHT22;19459;53.044;8.910;2024-01-06T15:25:44;1.10;99.90
33095;DHT22;19459;53.044;8.910;2024-01-06T15:28:10;1.10;99.90
33095;DHT22;19459;53.044;8.910;2024-01-06T15:30:35;1.10;99.90
33095;DHT22;19459;53.044;8.910;2024-01-06T15:33:01;1.10;99.90
33095;DHT22;19459;53.044;8.910;2024-01-06T15:35:27;1.10;99.90
33095;DHT22;19459;53.044;8.910;2024-01-06T15:37:53;1.10;99.90
33095;DHT22;19459;53.044;8.910;2024-01-06T15:40:19;1.00;99.90
33095;DHT22;19459;53.044;8.910;2024-01-06T15:42:45;1.00;99.90
33095;DHT22;19459;53.044;8.910;2024-01-06T15:45:11;1.00;99.90
33095;DHT22;19459;53.044;8.910;2024-01-06T15:47:38;1.10;99.90